Bookmark and Share
Track history (hours):
 

Giove Jet

Last reported at 2014-Apr-20 15:34 UTC. Time now 2014-Apr-20 21:06 UTC.
Position N 40°46' E 014°01'.

Length 33 m; draft 1.5 m.

Type: Ship. MMSI: 247049500.

NotesDate/timePositionNaut miles runAvg speedWind from/ knotsBaromVisibWave heightAir tempDewpointWater temp
2014-Apr-20 15:34N 40°46' E 014°01'5 5.3
2014-Apr-20 14:33N 40°47' E 014°08'5 5.5
2014-Apr-20 13:34N 40°46' E 014°01'4 3.6
2014-Apr-20 12:33N 40°45' E 013°56'0 0.0
2014-Apr-20 11:33N 40°45' E 013°56'11 3.8
2014-Apr-20 08:34N 40°47' E 014°11'3 3.4
2014-Apr-20 07:33N 40°47' E 014°07'3 0.2
2014-Apr-19 15:33N 40°47' E 014°02'5 5.5
2014-Apr-19 14:33N 40°47' E 014°09'7 6.7
2014-Apr-19 13:34N 40°46' E 014°01'4 3.7
2014-Apr-19 12:34N 40°45' E 013°56'0 0.1
2014-Apr-19 11:33N 40°45' E 013°56'0 0.0
2014-Apr-19 10:33N 40°45' E 013°56'12 6.0
2014-Apr-19 08:31N 40°47' E 014°12'5 4.8
2014-Apr-19 07:33N 40°47' E 014°06'5 0.3
2014-Apr-18 13:34N 40°44' E 014°01'3 3.4
2014-Apr-18 12:33N 40°45' E 013°56'0 0.0
2014-Apr-18 11:33N 40°45' E 013°56'1412.7
2014-Apr-18 10:27N 40°50' E 014°14'2 1.3
2014-Apr-18 08:31N 40°47' E 014°12'7 6.7
2014-Apr-18 07:33N 40°46' E 014°04'4 3.7
2014-Apr-18 06:27N 40°47' E 014°09'  
2014-Apr-15 15:30N 40°48' E 014°14'1414.4
2014-Apr-15 14:33N 40°45' E 013°56'13 4.1
2014-Apr-15 11:32N 40°47' E 014°12'1312.9
2014-Apr-15 10:34N 40°45' E 013°56'8 0.4
2014-Apr-14 16:34N 40°46' E 014°06'4 4.0
2014-Apr-14 15:34N 40°46' E 014°01'4 2.0
2014-Apr-14 13:34N 40°45' E 013°56'4 1.5
2014-Apr-14 10:33N 40°46' E 014°02'4 2.2
2014-Apr-14 08:34N 40°45' E 013°56'0 0.0
2014-Apr-14 07:33N 40°45' E 013°56'0 0.0
2014-Apr-12 19:13N 40°45' E 013°56'10 5.9
2014-Apr-12 17:33N 40°47' E 014°09'7 6.7
2014-Apr-12 16:34N 40°46' E 014°00'7 4.9
2014-Apr-12 15:13N 40°47' E 014°09'1014.7
2014-Apr-12 14:33N 40°45' E 013°56'13 6.4
2014-Apr-12 12:30N 40°48' E 014°13'1313.7
2014-Apr-12 11:34N 40°45' E 013°56'0 0.0
2014-Apr-11 19:16N 40°45' E 013°56'9 5.1
2014-Apr-11 17:33N 40°46' E 014°08'5 5.3
2014-Apr-11 16:33N 40°46' E 014°01'6 4.3
2014-Apr-11 15:14N 40°47' E 014°08'913.4
2014-Apr-11 14:33N 40°45' E 013°56'12 5.8
2014-Apr-11 12:30N 40°47' E 014°12'12 0.7
2014-Apr-10 19:12N 40°45' E 013°56'8 4.8
2014-Apr-10 17:33N 40°46' E 014°07'5 5.1
2014-Apr-10 16:33N 40°46' E 013°60'  

Dump ship's entire track history

sailing weather and tide predictions

Giove Jet — IJNX — position and weather